sensor_id;sensor_type;location;lat;lon;timestamp;temperature;humidity
6948;DHT22;3513;47.664;9.162;2024-03-06T00:02:18;6.90;99.90
6948;DHT22;3513;47.664;9.162;2024-03-06T00:04:44;6.90;99.90
6948;DHT22;3513;47.664;9.162;2024-03-06T00:07:10;6.80;99.90
6948;DHT22;3513;47.664;9.162;2024-03-06T00:09:36;6.70;99.90
6948;DHT22;3513;47.664;9.162;2024-03-06T00:12:02;6.60;99.90
6948;DHT22;3513;47.664;9.162;2024-03-06T00:14:28;6.60;99.90
6948;DHT22;3513;47.664;9.162;2024-03-06T00:16:53;6.60;99.90
6948;DHT22;3513;47.664;9.162;2024-03-06T00:19:21;6.60;99.90
6948;DHT22;3513;47.664;9.162;2024-03-06T00:21:47;6.70;99.90
6948;DHT22;3513;47.664;9.162;2024-03-06T00:24:13;6.80;99.90
6948;DHT22;3513;47.664;9.162;2024-03-06T00:26:44;6.70;99.90
6948;DHT22;3513;47.664;9.162;2024-03-06T00:29:10;6.70;99.90
6948;DHT22;3513;47.664;9.162;2024-03-06T00:31:36;6.70;99.90
6948;DHT22;3513;47.664;9.162;2024-03-06T00:34:02;6.70;99.90
6948;DHT22;3513;47.664;9.162;2024-03-06T00:36:27;6.80;99.90
6948;DHT22;3513;47.664;9.162;2024-03-06T00:38:53;6.70;99.90
6948;DHT22;3513;47.664;9.162;2024-03-06T00:41:19;6.70;99.90
6948;DHT22;3513;47.664;9.162;2024-03-06T00:43:44;6.70;99.90
6948;DHT22;3513;47.664;9.162;2024-03-06T00:46:10;6.70;99.90
6948;DHT22;3513;47.664;9.162;2024-03-06T00:48:36;6.70;99.90
6948;DHT22;3513;47.664;9.162;2024-03-06T00:51:04;6.60;99.90
6948;DHT22;3513;47.664;9.162;2024-03-06T00:53:30;6.60;99.90
6948;DHT22;3513;47.664;9.162;2024-03-06T00:55:55;6.60;99.90
6948;DHT22;3513;47.664;9.162;2024-03-06T00:58:21;6.60;99.90
6948;DHT22;3513;47.664;9.162;2024-03-06T01:00:47;6.60;99.90
6948;DHT22;3513;47.664;9.162;2024-03-06T01:03:12;6.50;99.90
6948;DHT22;3513;47.664;9.162;2024-03-06T01:05:38;6.40;99.90
6948;DHT22;3513;47.664;9.162;2024-03-06T01:08:03;6.40;99.90
6948;DHT22;3513;47.664;9.162;2024-03-06T01:10:29;6.40;99.90
6948;DHT22;3513;47.664;9.162;2024-03-06T01:12:55;6.40;99.90
6948;DHT22;3513;47.664;9.162;2024-03-06T01:15:20;6.30;99.90
6948;DHT22;3513;47.664;9.162;2024-03-06T01:17:46;6.40;99.90
6948;DHT22;3513;47.664;9.162;2024-03-06T01:20:12;6.40;99.90
6948;DHT22;3513;47.664;9.162;2024-03-06T01:22:37;6.40;99.90
6948;DHT22;3513;47.664;9.162;2024-03-06T01:25:03;6.40;99.90
6948;DHT22;3513;47.664;9.162;2024-03-06T01:27:30;6.40;99.90
6948;DHT22;3513;47.664;9.162;2024-03-06T01:29:55;6.40;99.90
6948;DHT22;3513;47.664;9.162;2024-03-06T01:32:21;6.50;99.90
6948;DHT22;3513;47.664;9.162;2024-03-06T01:34:47;6.40;99.90
6948;DHT22;3513;47.664;9.162;2024-03-06T01:37:12;6.40;99.90
6948;DHT22;3513;47.664;9.162;2024-03-06T01:39:38;6.30;99.90
6948;DHT22;3513;47.664;9.162;2024-03-06T01:42:03;6.30;99.90
6948;DHT22;3513;47.664;9.162;2024-03-06T01:44:29;6.30;99.90
6948;DHT22;3513;47.664;9.162;2024-03-06T01:46:55;6.30;99.90
6948;DHT22;3513;47.664;9.162;2024-03-06T01:49:21;6.20;99.90
6948;DHT22;3513;47.664;9.162;2024-03-06T01:51:53;6.20;99.90
6948;DHT22;3513;47.664;9.162;2024-03-06T01:54:19;6.10;99.90
6948;DHT22;3513;47.664;9.162;2024-03-06T01:56:46;6.10;99.90
6948;DHT22;3513;47.664;9.162;2024-03-06T01:59:13;6.10;99.90
6948;DHT22;3513;47.664;9.162;2024-03-06T02:01:40;6.00;99.90
6948;DHT22;3513;47.664;9.162;2024-03-06T02:04:09;6.00;99.90
6948;DHT22;3513;47.664;9.162;2024-03-06T02:06:38;6.10;99.90
6948;DHT22;3513;47.664;9.162;2024-03-06T02:09:04;6.20;99.90
6948;DHT22;3513;47.664;9.162;2024-03-06T02:11:29;6.20;99.90
6948;DHT22;3513;47.664;9.162;2024-03-06T02:13:55;6.20;99.90
6948;DHT22;3513;47.664;9.162;2024-03-06T02:16:21;6.20;99.90
6948;DHT22;3513;47.664;9.162;2024-03-06T02:18:53;6.20;99.90
6948;DHT22;3513;47.664;9.162;2024-03-06T02:21:20;6.10;99.90
6948;DHT22;3513;47.664;9.162;2024-03-06T02:23:46;6.10;99.90
6948;DHT22;3513;47.664;9.162;2024-03-06T02:26:11;6.00;99.90
6948;DHT22;3513;47.664;9.162;2024-03-06T02:28:37;6.10;99.90
6948;DHT22;3513;47.664;9.162;2024-03-06T02:31:03;6.20;99.90
6948;DHT22;3513;47.664;9.162;2024-03-06T02:33:31;6.20;99.90
6948;DHT22;3513;47.664;9.162;2024-03-06T02:35:56;6.20;99.90
6948;DHT22;3513;47.664;9.162;2024-03-06T02:38:22;6.30;99.90
6948;DHT22;3513;47.664;9.162;2024-03-06T02:40:47;6.30;99.90
6948;DHT22;3513;47.664;9.162;2024-03-06T02:43:13;6.40;99.90
6948;DHT22;3513;47.664;9.162;2024-03-06T02:45:39;6.40;99.90
6948;DHT22;3513;47.664;9.162;2024-03-06T02:48:04;6.30;99.90
6948;DHT22;3513;47.664;9.162;2024-03-06T02:50:30;6.20;99.90
6948;DHT22;3513;47.664;9.162;2024-03-06T02:52:56;6.20;99.90
6948;DHT22;3513;47.664;9.162;2024-03-06T02:55:22;6.10;99.90
6948;DHT22;3513;47.664;9.162;2024-03-06T02:57:49;6.20;99.90
6948;DHT22;3513;47.664;9.162;2024-03-06T03:00:14;6.10;99.90
6948;DHT22;3513;47.664;9.162;2024-03-06T03:02:41;6.10;99.90
6948;DHT22;3513;47.664;9.162;2024-03-06T03:05:08;6.00;99.90
6948;DHT22;3513;47.664;9.162;2024-03-06T03:07:33;5.90;99.90
6948;DHT22;3513;47.664;9.162;2024-03-06T03:09:59;5.90;99.90
6948;DHT22;3513;47.664;9.162;2024-03-06T03:12:25;6.00;99.90
6948;DHT22;3513;47.664;9.162;2024-03-06T03:14:50;6.00;99.90
6948;DHT22;3513;47.664;9.162;2024-03-06T03:17:18;6.00;99.90
6948;DHT22;3513;47.664;9.162;2024-03-06T03:19:44;6.00;99.90
6948;DHT22;3513;47.664;9.162;2024-03-06T03:22:10;5.90;99.90
6948;DHT22;3513;47.664;9.162;2024-03-06T03:24:36;5.90;99.90
6948;DHT22;3513;47.664;9.162;2024-03-06T03:27:02;5.90;99.90
6948;DHT22;3513;47.664;9.162;2024-03-06T03:29:28;5.90;99.90
6948;DHT22;3513;47.664;9.162;2024-03-06T03:31:55;5.90;99.90
6948;DHT22;3513;47.664;9.162;2024-03-06T03:34:20;6.00;99.90
6948;DHT22;3513;47.664;9.162;2024-03-06T03:36:46;6.00;99.90
6948;DHT22;3513;47.664;9.162;2024-03-06T03:39:12;5.90;99.90
6948;DHT22;3513;47.664;9.162;2024-03-06T03:41:45;6.00;99.90
6948;DHT22;3513;47.664;9.162;2024-03-06T03:44:12;6.00;99.90
6948;DHT22;3513;47.664;9.162;2024-03-06T03:46:37;6.00;99.90
6948;DHT22;3513;47.664;9.162;2024-03-06T03:49:03;6.00;99.90
6948;DHT22;3513;47.664;9.162;2024-03-06T03:51:29;5.90;99.90
6948;DHT22;3513;47.664;9.162;2024-03-06T03:53:54;5.90;99.90
6948;DHT22;3513;47.664;9.162;2024-03-06T03:56:20;5.80;99.90
6948;DHT22;3513;47.664;9.162;2024-03-06T03:58:45;5.80;99.90
6948;DHT22;3513;47.664;9.162;2024-03-06T04:01:11;5.80;99.90
6948;DHT22;3513;47.664;9.162;2024-03-06T04:03:37;5.80;99.90
6948;DHT22;3513;47.664;9.162;2024-03-06T04:06:02;5.80;99.90
6948;DHT22;3513;47.664;9.162;2024-03-06T04:08:29;5.70;99.90
6948;DHT22;3513;47.664;9.162;2024-03-06T04:10:54;5.70;99.90
6948;DHT22;3513;47.664;9.162;2024-03-06T04:13:20;5.60;99.90
6948;DHT22;3513;47.664;9.162;2024-03-06T04:15:46;5.60;99.90
6948;DHT22;3513;47.664;9.162;2024-03-06T04:18:12;5.60;99.90
6948;DHT22;3513;47.664;9.162;2024-03-06T04:20:38;5.60;99.90
6948;DHT22;3513;47.664;9.162;2024-03-06T04:23:03;5.70;99.90
6948;DHT22;3513;47.664;9.162;2024-03-06T04:25:29;5.70;99.90
6948;DHT22;3513;47.664;9.162;2024-03-06T04:27:55;5.80;99.90
6948;DHT22;3513;47.664;9.162;2024-03-06T04:30:21;5.80;99.90
6948;DHT22;3513;47.664;9.162;2024-03-06T04:32:47;5.80;99.90
6948;DHT22;3513;47.664;9.162;2024-03-06T04:35:12;5.80;99.90
6948;DHT22;3513;47.664;9.162;2024-03-06T04:37:38;5.70;99.90
6948;DHT22;3513;47.664;9.162;2024-03-06T04:40:04;5.60;99.90
6948;DHT22;3513;47.664;9.162;2024-03-06T04:42:34;5.50;99.90
6948;DHT22;3513;47.664;9.162;2024-03-06T04:45:11;5.40;99.90
6948;DHT22;3513;47.664;9.162;2024-03-06T04:47:37;5.50;99.90
6948;DHT22;3513;47.664;9.162;2024-03-06T04:50:03;5.40;99.90
6948;DHT22;3513;47.664;9.162;2024-03-06T04:52:29;5.50;99.90
6948;DHT22;3513;47.664;9.162;2024-03-06T04:54:54;5.50;99.90
6948;DHT22;3513;47.664;9.162;2024-03-06T04:57:20;5.60;99.90
6948;DHT22;3513;47.664;9.162;2024-03-06T04:59:45;5.60;99.90
6948;DHT22;3513;47.664;9.162;2024-03-06T05:02:11;5.60;99.90
6948;DHT22;3513;47.664;9.162;2024-03-06T05:04:36;5.40;99.90
6948;DHT22;3513;47.664;9.162;2024-03-06T05:07:02;5.40;99.90
6948;DHT22;3513;47.664;9.162;2024-03-06T05:09:28;5.50;99.90
6948;DHT22;3513;47.664;9.162;2024-03-06T05:11:53;5.40;99.90
6948;DHT22;3513;47.664;9.162;2024-03-06T05:14:19;5.40;99.90
6948;DHT22;3513;47.664;9.162;2024-03-06T05:16:45;5.50;99.90
6948;DHT22;3513;47.664;9.162;2024-03-06T05:19:10;5.60;99.90
6948;DHT22;3513;47.664;9.162;2024-03-06T05:21:36;5.50;99.90
6948;DHT22;3513;47.664;9.162;2024-03-06T05:24:02;5.60;99.90
6948;DHT22;3513;47.664;9.162;2024-03-06T05:26:27;5.60;99.90
6948;DHT22;3513;47.664;9.162;2024-03-06T05:28:53;5.40;99.90
6948;DHT22;3513;47.664;9.162;2024-03-06T05:31:20;5.30;99.90
6948;DHT22;3513;47.664;9.162;2024-03-06T05:33:48;5.40;99.90
6948;DHT22;3513;47.664;9.162;2024-03-06T05:36:16;5.60;99.90
6948;DHT22;3513;47.664;9.162;2024-03-06T05:38:43;5.50;99.90
6948;DHT22;3513;47.664;9.162;2024-03-06T05:41:09;5.50;99.90
6948;DHT22;3513;47.664;9.162;2024-03-06T05:43:34;5.30;99.90
6948;DHT22;3513;47.664;9.162;2024-03-06T05:46:00;5.30;99.90
6948;DHT22;3513;47.664;9.162;2024-03-06T05:48:26;5.40;99.90
6948;DHT22;3513;47.664;9.162;2024-03-06T05:50:52;5.30;99.90
6948;DHT22;3513;47.664;9.162;2024-03-06T05:53:18;5.20;99.90
6948;DHT22;3513;47.664;9.162;2024-03-06T05:55:44;5.10;99.90
6948;DHT22;3513;47.664;9.162;2024-03-06T05:58:09;5.00;99.90
6948;DHT22;3513;47.664;9.162;2024-03-06T06:00:35;5.00;99.90
6948;DHT22;3513;47.664;9.162;2024-03-06T06:03:00;5.00;99.90
6948;DHT22;3513;47.664;9.162;2024-03-06T06:05:26;5.00;99.90
6948;DHT22;3513;47.664;9.162;2024-03-06T06:07:51;4.90;99.90
6948;DHT22;3513;47.664;9.162;2024-03-06T06:10:17;4.90;99.90
6948;DHT22;3513;47.664;9.162;2024-03-06T06:12:44;4.90;99.90
6948;DHT22;3513;47.664;9.162;2024-03-06T06:15:10;5.00;99.90
6948;DHT22;3513;47.664;9.162;2024-03-06T06:17:36;5.00;99.90
6948;DHT22;3513;47.664;9.162;2024-03-06T06:20:06;4.90;99.90
6948;DHT22;3513;47.664;9.162;2024-03-06T06:22:36;4.90;99.90
6948;DHT22;3513;47.664;9.162;2024-03-06T06:25:01;5.00;99.90
6948;DHT22;3513;47.664;9.162;2024-03-06T06:27:29;5.00;99.90
6948;DHT22;3513;47.664;9.162;2024-03-06T06:29:55;4.90;99.90
6948;DHT22;3513;47.664;9.162;2024-03-06T06:32:21;4.90;99.90
6948;DHT22;3513;47.664;9.162;2024-03-06T06:34:46;4.90;99.90
6948;DHT22;3513;47.664;9.162;2024-03-06T06:37:12;4.80;99.90
6948;DHT22;3513;47.664;9.162;2024-03-06T06:39:38;4.70;99.90
6948;DHT22;3513;47.664;9.162;2024-03-06T06:42:03;4.60;99.90
6948;DHT22;3513;47.664;9.162;2024-03-06T06:44:29;4.60;99.90
6948;DHT22;3513;47.664;9.162;2024-03-06T06:46:55;4.60;99.90
6948;DHT22;3513;47.664;9.162;2024-03-06T06:49:21;4.70;99.90
6948;DHT22;3513;47.664;9.162;2024-03-06T06:51:47;4.70;99.90
6948;DHT22;3513;47.664;9.162;2024-03-06T06:54:14;4.70;99.90
6948;DHT22;3513;47.664;9.162;2024-03-06T06:56:40;4.60;99.90
6948;DHT22;3513;47.664;9.162;2024-03-06T06:59:13;4.70;99.90
6948;DHT22;3513;47.664;9.162;2024-03-06T07:01:51;4.60;99.90
6948;DHT22;3513;47.664;9.162;2024-03-06T07:04:16;4.70;99.90
6948;DHT22;3513;47.664;9.162;2024-03-06T07:06:45;4.60;99.90
6948;DHT22;3513;47.664;9.162;2024-03-06T07:09:12;4.70;99.90
6948;DHT22;3513;47.664;9.162;2024-03-06T07:11:37;4.60;99.90
6948;DHT22;3513;47.664;9.162;2024-03-06T07:14:03;4.70;99.90
6948;DHT22;3513;47.664;9.162;2024-03-06T07:16:28;4.70;99.90
6948;DHT22;3513;47.664;9.162;2024-03-06T07:18:54;4.80;99.90
6948;DHT22;3513;47.664;9.162;2024-03-06T07:21:26;4.80;99.90
6948;DHT22;3513;47.664;9.162;2024-03-06T07:23:51;4.90;99.90
6948;DHT22;3513;47.664;9.162;2024-03-06T07:26:17;4.80;99.90
6948;DHT22;3513;47.664;9.162;2024-03-06T07:28:42;4.80;99.90
6948;DHT22;3513;47.664;9.162;2024-03-06T07:31:08;4.80;99.90
6948;DHT22;3513;47.664;9.162;2024-03-06T07:33:33;4.80;99.90
6948;DHT22;3513;47.664;9.162;2024-03-06T07:36:03;4.80;99.90
6948;DHT22;3513;47.664;9.162;2024-03-06T07:38:29;4.80;99.90
6948;DHT22;3513;47.664;9.162;2024-03-06T07:40:54;4.90;99.90
6948;DHT22;3513;47.664;9.162;2024-03-06T07:43:20;4.80;99.90
6948;DHT22;3513;47.664;9.162;2024-03-06T07:45:45;4.80;99.90
6948;DHT22;3513;47.664;9.162;2024-03-06T07:48:13;4.80;99.90
6948;DHT22;3513;47.664;9.162;2024-03-06T07:50:38;4.80;99.90
6948;DHT22;3513;47.664;9.162;2024-03-06T07:53:05;4.90;99.90
6948;DHT22;3513;47.664;9.162;2024-03-06T07:55:31;4.90;99.90
6948;DHT22;3513;47.664;9.162;2024-03-06T07:57:56;4.90;99.90
6948;DHT22;3513;47.664;9.162;2024-03-06T08:00:22;5.00;99.90
6948;DHT22;3513;47.664;9.162;2024-03-06T08:02:48;5.00;99.90
6948;DHT22;3513;47.664;9.162;2024-03-06T08:05:17;5.10;99.90
6948;DHT22;3513;47.664;9.162;2024-03-06T08:07:42;5.00;99.90
6948;DHT22;3513;47.664;9.162;2024-03-06T08:10:10;4.90;99.90
6948;DHT22;3513;47.664;9.162;2024-03-06T08:12:42;4.90;99.90
6948;DHT22;3513;47.664;9.162;2024-03-06T08:15:12;4.90;99.90
6948;DHT22;3513;47.664;9.162;2024-03-06T08:17:39;4.90;99.90
6948;DHT22;3513;47.664;9.162;2024-03-06T08:20:07;4.90;99.90
6948;DHT22;3513;47.664;9.162;2024-03-06T08:22:39;4.90;99.90
6948;DHT22;3513;47.664;9.162;2024-03-06T08:25:08;4.80;99.90
6948;DHT22;3513;47.664;9.162;2024-03-06T08:27:35;4.80;99.90
6948;DHT22;3513;47.664;9.162;2024-03-06T08:30:03;4.90;99.90
6948;DHT22;3513;47.664;9.162;2024-03-06T08:32:33;4.80;99.90
6948;DHT22;3513;47.664;9.162;2024-03-06T08:35:08;4.80;99.90
6948;DHT22;3513;47.664;9.162;2024-03-06T08:37:40;4.90;99.90
6948;DHT22;3513;47.664;9.162;2024-03-06T08:40:07;5.00;99.90
6948;DHT22;3513;47.664;9.162;2024-03-06T08:42:33;5.00;99.90
6948;DHT22;3513;47.664;9.162;2024-03-06T08:44:58;5.10;99.90
6948;DHT22;3513;47.664;9.162;2024-03-06T08:47:24;5.20;99.90
6948;DHT22;3513;47.664;9.162;2024-03-06T08:49:49;5.20;99.90
6948;DHT22;3513;47.664;9.162;2024-03-06T08:52:15;5.30;99.90
6948;DHT22;3513;47.664;9.162;2024-03-06T08:54:41;5.30;99.90
6948;DHT22;3513;47.664;9.162;2024-03-06T08:57:07;5.30;99.90
6948;DHT22;3513;47.664;9.162;2024-03-06T08:59:34;5.30;99.90
6948;DHT22;3513;47.664;9.162;2024-03-06T09:02:15;5.30;99.90
6948;DHT22;3513;47.664;9.162;2024-03-06T09:04:42;5.40;99.90
6948;DHT22;3513;47.664;9.162;2024-03-06T09:07:07;5.40;99.90
6948;DHT22;3513;47.664;9.162;2024-03-06T09:09:37;5.40;99.90
6948;DHT22;3513;47.664;9.162;2024-03-06T09:12:06;5.50;99.90
6948;DHT22;3513;47.664;9.162;2024-03-06T09:14:33;5.60;99.90
6948;DHT22;3513;47.664;9.162;2024-03-06T09:16:59;5.60;99.90
6948;DHT22;3513;47.664;9.162;2024-03-06T09:19:25;5.60;99.90
6948;DHT22;3513;47.664;9.162;2024-03-06T09:21:51;5.70;99.90
6948;DHT22;3513;47.664;9.162;2024-03-06T09:24:16;5.70;99.90
6948;DHT22;3513;47.664;9.162;2024-03-06T09:26:43;5.70;99.90
6948;DHT22;3513;47.664;9.162;2024-03-06T09:29:09;5.70;99.90
6948;DHT22;3513;47.664;9.162;2024-03-06T09:31:35;5.60;99.90
6948;DHT22;3513;47.664;9.162;2024-03-06T09:34:02;5.50;99.90
6948;DHT22;3513;47.664;9.162;2024-03-06T09:36:28;5.50;99.90
6948;DHT22;3513;47.664;9.162;2024-03-06T09:38:53;5.40;99.90
6948;DHT22;3513;47.664;9.162;2024-03-06T09:41:21;5.40;99.90
6948;DHT22;3513;47.664;9.162;2024-03-06T09:43:47;5.30;99.90
6948;DHT22;3513;47.664;9.162;2024-03-06T09:46:13;5.30;99.90
6948;DHT22;3513;47.664;9.162;2024-03-06T09:48:46;5.40;99.90
6948;DHT22;3513;47.664;9.162;2024-03-06T09:51:12;5.40;99.90
6948;DHT22;3513;47.664;9.162;2024-03-06T09:53:39;5.40;99.90
6948;DHT22;3513;47.664;9.162;2024-03-06T09:56:07;5.50;99.90
6948;DHT22;3513;47.664;9.162;2024-03-06T09:58:34;5.50;99.90
6948;DHT22;3513;47.664;9.162;2024-03-06T10:01:00;5.50;99.90
6948;DHT22;3513;47.664;9.162;2024-03-06T10:03:29;5.50;99.90
6948;DHT22;3513;47.664;9.162;2024-03-06T10:05:54;5.50;99.90
6948;DHT22;3513;47.664;9.162;2024-03-06T10:08:21;5.50;99.90
6948;DHT22;3513;47.664;9.162;2024-03-06T10:10:50;5.40;99.90
6948;DHT22;3513;47.664;9.162;2024-03-06T10:13:23;5.50;99.90
6948;DHT22;3513;47.664;9.162;2024-03-06T10:16:00;5.50;99.90
6948;DHT22;3513;47.664;9.162;2024-03-06T10:18:27;5.50;99.90
6948;DHT22;3513;47.664;9.162;2024-03-06T10:20:53;5.50;99.90
6948;DHT22;3513;47.664;9.162;2024-03-06T10:23:19;5.50;99.90
6948;DHT22;3513;47.664;9.162;2024-03-06T10:25:47;5.60;99.90
6948;DHT22;3513;47.664;9.162;2024-03-06T10:28:16;5.60;99.90
6948;DHT22;3513;47.664;9.162;2024-03-06T10:30:42;5.60;99.90
6948;DHT22;3513;47.664;9.162;2024-03-06T10:33:09;5.70;99.90
6948;DHT22;3513;47.664;9.162;2024-03-06T10:35:35;5.60;99.90
6948;DHT22;3513;47.664;9.162;2024-03-06T10:38:05;5.70;99.90
6948;DHT22;3513;47.664;9.162;2024-03-06T10:40:32;5.70;99.90
6948;DHT22;3513;47.664;9.162;2024-03-06T10:42:59;5.70;99.90
6948;DHT22;3513;47.664;9.162;2024-03-06T10:45:48;5.70;99.90
6948;DHT22;3513;47.664;9.162;2024-03-06T10:48:15;5.80;99.90
6948;DHT22;3513;47.664;9.162;2024-03-06T10:50:42;5.80;99.90
6948;DHT22;3513;47.664;9.162;2024-03-06T10:53:15;5.70;99.90
6948;DHT22;3513;47.664;9.162;2024-03-06T10:55:42;5.70;99.90
6948;DHT22;3513;47.664;9.162;2024-03-06T10:58:10;5.80;99.90
6948;DHT22;3513;47.664;9.162;2024-03-06T11:00:44;5.90;99.90
6948;DHT22;3513;47.664;9.162;2024-03-06T11:03:11;5.90;99.90
6948;DHT22;3513;47.664;9.162;2024-03-06T11:05:41;5.90;99.90
6948;DHT22;3513;47.664;9.162;2024-03-06T11:08:12;6.00;99.90
6948;DHT22;3513;47.664;9.162;2024-03-06T11:10:39;5.90;99.90
6948;DHT22;3513;47.664;9.162;2024-03-06T11:13:21;5.90;99.90
6948;DHT22;3513;47.664;9.162;2024-03-06T11:15:49;5.90;99.90
6948;DHT22;3513;47.664;9.162;2024-03-06T11:24:17;5.90;99.90
6948;DHT22;3513;47.664;9.162;2024-03-06T11:27:06;5.80;99.90
6948;DHT22;3513;47.664;9.162;2024-03-06T11:32:36;5.90;99.90
6948;DHT22;3513;47.664;9.162;2024-03-06T11:35:04;5.90;99.90
6948;DHT22;3513;47.664;9.162;2024-03-06T11:37:33;5.90;99.90
6948;DHT22;3513;47.664;9.162;2024-03-06T11:40:00;5.90;99.90
6948;DHT22;3513;47.664;9.162;2024-03-06T11:42:36;5.90;99.90
6948;DHT22;3513;47.664;9.162;2024-03-06T11:45:12;5.90;99.90
6948;DHT22;3513;47.664;9.162;2024-03-06T11:48:01;5.90;99.90
6948;DHT22;3513;47.664;9.162;2024-03-06T11:50:28;6.00;99.90
6948;DHT22;3513;47.664;9.162;2024-03-06T11:52:55;6.10;99.90
6948;DHT22;3513;47.664;9.162;2024-03-06T11:55:22;6.00;99.90
6948;DHT22;3513;47.664;9.162;2024-03-06T11:57:48;6.00;99.90
6948;DHT22;3513;47.664;9.162;2024-03-06T12:00:14;5.90;99.90
6948;DHT22;3513;47.664;9.162;2024-03-06T12:02:40;5.80;99.90
6948;DHT22;3513;47.664;9.162;2024-03-06T12:05:07;5.90;99.90
6948;DHT22;3513;47.664;9.162;2024-03-06T12:07:45;5.80;99.90
6948;DHT22;3513;47.664;9.162;2024-03-06T12:10:11;5.80;99.90
6948;DHT22;3513;47.664;9.162;2024-03-06T12:12:36;5.80;99.90
6948;DHT22;3513;47.664;9.162;2024-03-06T12:15:03;5.80;99.90
6948;DHT22;3513;47.664;9.162;2024-03-06T12:17:29;5.80;99.90
6948;DHT22;3513;47.664;9.162;2024-03-06T12:19:56;5.80;99.90
6948;DHT22;3513;47.664;9.162;2024-03-06T12:22:25;5.80;99.90
6948;DHT22;3513;47.664;9.162;2024-03-06T12:25:01;5.80;99.90
6948;DHT22;3513;47.664;9.162;2024-03-06T12:27:26;5.80;99.90
6948;DHT22;3513;47.664;9.162;2024-03-06T12:29:53;5.80;99.90
6948;DHT22;3513;47.664;9.162;2024-03-06T12:32:19;5.80;99.90
6948;DHT22;3513;47.664;9.162;2024-03-06T12:34:44;5.70;99.90
6948;DHT22;3513;47.664;9.162;2024-03-06T12:37:10;5.70;99.90
6948;DHT22;3513;47.664;9.162;2024-03-06T12:39:36;5.70;99.90
6948;DHT22;3513;47.664;9.162;2024-03-06T12:42:02;5.70;99.90
6948;DHT22;3513;47.664;9.162;2024-03-06T12:44:27;5.80;99.90
6948;DHT22;3513;47.664;9.162;2024-03-06T12:46:53;5.80;99.90
6948;DHT22;3513;47.664;9.162;2024-03-06T12:49:18;5.90;99.90
6948;DHT22;3513;47.664;9.162;2024-03-06T12:51:44;5.90;99.90
6948;DHT22;3513;47.664;9.162;2024-03-06T12:54:09;5.90;99.90
6948;DHT22;3513;47.664;9.162;2024-03-06T12:56:35;5.90;99.90
6948;DHT22;3513;47.664;9.162;2024-03-06T12:59:01;5.90;99.90
6948;DHT22;3513;47.664;9.162;2024-03-06T13:01:27;6.00;99.90
6948;DHT22;3513;47.664;9.162;2024-03-06T13:03:52;6.00;99.90
6948;DHT22;3513;47.664;9.162;2024-03-06T13:06:18;6.00;99.90
6948;DHT22;3513;47.664;9.162;2024-03-06T13:08:43;6.00;99.90
6948;DHT22;3513;47.664;9.162;2024-03-06T13:11:09;5.90;99.90
6948;DHT22;3513;47.664;9.162;2024-03-06T13:13:35;5.90;99.90
6948;DHT22;3513;47.664;9.162;2024-03-06T13:16:00;5.90;99.90
6948;DHT22;3513;47.664;9.162;2024-03-06T13:18:26;5.90;99.90
6948;DHT22;3513;47.664;9.162;2024-03-06T13:20:52;5.90;99.90
6948;DHT22;3513;47.664;9.162;2024-03-06T13:23:19;5.90;99.90
6948;DHT22;3513;47.664;9.162;2024-03-06T13:25:44;5.90;99.90
6948;DHT22;3513;47.664;9.162;2024-03-06T13:28:11;5.80;99.90
6948;DHT22;3513;47.664;9.162;2024-03-06T13:30:37;5.80;99.90
6948;DHT22;3513;47.664;9.162;2024-03-06T13:33:04;5.90;99.90
6948;DHT22;3513;47.664;9.162;2024-03-06T13:35:30;5.80;99.90
6948;DHT22;3513;47.664;9.162;2024-03-06T13:37:56;5.80;99.90
6948;DHT22;3513;47.664;9.162;2024-03-06T13:40:21;5.70;99.90
6948;DHT22;3513;47.664;9.162;2024-03-06T13:42:47;5.70;99.90
6948;DHT22;3513;47.664;9.162;2024-03-06T13:45:13;5.60;99.90
6948;DHT22;3513;47.664;9.162;2024-03-06T13:47:43;5.60;99.90
6948;DHT22;3513;47.664;9.162;2024-03-06T13:50:14;5.60;99.90
6948;DHT22;3513;47.664;9.162;2024-03-06T13:52:42;5.70;99.90
6948;DHT22;3513;47.664;9.162;2024-03-06T13:55:09;5.70;99.90
6948;DHT22;3513;47.664;9.162;2024-03-06T13:57:36;5.80;99.90
6948;DHT22;3513;47.664;9.162;2024-03-06T14:00:09;5.80;99.90
6948;DHT22;3513;47.664;9.162;2024-03-06T14:02:39;5.70;99.90
6948;DHT22;3513;47.664;9.162;2024-03-06T14:05:05;5.80;99.90
6948;DHT22;3513;47.664;9.162;2024-03-06T14:07:31;5.80;99.90
6948;DHT22;3513;47.664;9.162;2024-03-06T14:09:58;5.80;99.90
6948;DHT22;3513;47.664;9.162;2024-03-06T14:12:23;5.90;99.90
6948;DHT22;3513;47.664;9.162;2024-03-06T14:14:49;5.90;99.90
6948;DHT22;3513;47.664;9.162;2024-03-06T14:17:15;5.90;99.90
6948;DHT22;3513;47.664;9.162;2024-03-06T14:19:40;5.90;99.90
6948;DHT22;3513;47.664;9.162;2024-03-06T14:22:07;5.80;99.90
6948;DHT22;3513;47.664;9.162;2024-03-06T14:24:33;5.80;99.90
6948;DHT22;3513;47.664;9.162;2024-03-06T14:26:59;5.80;99.90
6948;DHT22;3513;47.664;9.162;2024-03-06T14:29:24;5.80;99.90
6948;DHT22;3513;47.664;9.162;2024-03-06T14:31:52;5.70;99.90
6948;DHT22;3513;47.664;9.162;2024-03-06T14:34:17;5.80;99.90
6948;DHT22;3513;47.664;9.162;2024-03-06T14:36:43;6.30;99.90
6948;DHT22;3513;47.664;9.162;2024-03-06T14:39:09;5.80;99.90
6948;DHT22;3513;47.664;9.162;2024-03-06T14:41:36;5.70;99.90
6948;DHT22;3513;47.664;9.162;2024-03-06T14:44:01;5.70;99.90
6948;DHT22;3513;47.664;9.162;2024-03-06T14:46:28;5.70;99.90
6948;DHT22;3513;47.664;9.162;2024-03-06T14:48:54;5.60;99.90
6948;DHT22;3513;47.664;9.162;2024-03-06T14:51:20;5.60;99.90
6948;DHT22;3513;47.664;9.162;2024-03-06T14:53:45;5.60;99.90
6948;DHT22;3513;47.664;9.162;2024-03-06T14:56:11;5.60;99.90
6948;DHT22;3513;47.664;9.162;2024-03-06T14:58:37;5.60;99.90
6948;DHT22;3513;47.664;9.162;2024-03-06T15:01:03;5.60;99.90
6948;DHT22;3513;47.664;9.162;2024-03-06T15:03:29;5.50;99.90
6948;DHT22;3513;47.664;9.162;2024-03-06T15:05:54;5.40;99.90
6948;DHT22;3513;47.664;9.162;2024-03-06T15:08:20;5.40;99.90
6948;DHT22;3513;47.664;9.162;2024-03-06T15:10:46;5.40;99.90
6948;DHT22;3513;47.664;9.162;2024-03-06T15:13:11;5.40;99.90
6948;DHT22;3513;47.664;9.162;2024-03-06T15:15:38;5.30;99.90
6948;DHT22;3513;47.664;9.162;2024-03-06T15:18:05;5.30;99.90
6948;DHT22;3513;47.664;9.162;2024-03-06T15:20:31;5.30;99.90
6948;DHT22;3513;47.664;9.162;2024-03-06T15:22:59;5.30;99.90
6948;DHT22;3513;47.664;9.162;2024-03-06T15:25:24;5.20;99.90
6948;DHT22;3513;47.664;9.162;2024-03-06T15:27:50;5.20;99.90
6948;DHT22;3513;47.664;9.162;2024-03-06T15:30:15;5.20;99.90
6948;DHT22;3513;47.664;9.162;2024-03-06T15:32:42;5.20;99.90
6948;DHT22;3513;47.664;9.162;2024-03-06T15:35:08;5.20;99.90
6948;DHT22;3513;47.664;9.162;2024-03-06T15:37:34;5.20;99.90
6948;DHT22;3513;47.664;9.162;2024-03-06T15:40:00;5.20;99.90
6948;DHT22;3513;47.664;9.162;2024-03-06T15:42:25;5.20;99.90
6948;DHT22;3513;47.664;9.162;2024-03-06T15:44:51;5.10;99.90
6948;DHT22;3513;47.664;9.162;2024-03-06T15:47:18;5.10;99.90
6948;DHT22;3513;47.664;9.162;2024-03-06T15:49:45;5.10;99.90
6948;DHT22;3513;47.664;9.162;2024-03-06T15:52:11;5.00;99.90
6948;DHT22;3513;47.664;9.162;2024-03-06T15:54:38;5.00;99.90
6948;DHT22;3513;47.664;9.162;2024-03-06T15:57:04;5.00;99.90
6948;DHT22;3513;47.664;9.162;2024-03-06T15:59:33;5.00;99.90
6948;DHT22;3513;47.664;9.162;2024-03-06T16:01:59;4.90;99.90
6948;DHT22;3513;47.664;9.162;2024-03-06T16:04:24;4.90;99.90
6948;DHT22;3513;47.664;9.162;2024-03-06T16:06:51;4.90;99.90
6948;DHT22;3513;47.664;9.162;2024-03-06T16:09:16;4.90;99.90
6948;DHT22;3513;47.664;9.162;2024-03-06T16:11:42;5.00;99.90
6948;DHT22;3513;47.664;9.162;2024-03-06T16:14:08;5.00;99.90
6948;DHT22;3513;47.664;9.162;2024-03-06T16:16:33;5.00;99.90
6948;DHT22;3513;47.664;9.162;2024-03-06T16:18:59;5.00;99.90
6948;DHT22;3513;47.664;9.162;2024-03-06T16:21:24;5.00;99.90
6948;DHT22;3513;47.664;9.162;2024-03-06T16:23:51;5.00;99.90